< < Back
Terminal Aerodrome Forecast


Current Version              Previous Versions:   1  2  3  4  5  6  7  8  9  

Terminal Aerodrome Forecast

514
FTUS42 KFFC 301733
TAFFTY
TAF
KFTY 301733Z 3018/3118 34005KT P6SM VCSH BKN040
      TEMPO 3018/3021 VRB10G20KT 6SM -TSRA BKN040CB
     FM310000 34004KT P6SM SCT060 SCT250
     FM311400 04004KT P6SM FEW050=

Latest METAR

673
SAUS70 KWBC 310300 RRE
MTRFTY
METAR KFTY 310253Z 00000KT 10SM CLR 28/22 A2997 RMK AO2 SLP138 T02830217
53015


USA.gov is the U.S. government's official web portal to all federal, state and local government web resources and services.